首页
METAR-TAF:

METAR-TAF

机场 :

比萨-圣朱斯托机场

比萨, 意大利

纬度: 43-41N, 经度: 010-23E, 海拔: 2米

当前天气观测

该预报发布于24分钟前的12:15 UTC
风速2节,风向东转东南
温度 13°C
湿度 94%
气压 1020 hPa
能见度10公里或以上
少量云层高于2300英尺

METAR: LIRP 261215Z 12002KT 9999 FEW023 13/12 Q1020 NOSIG

时间: 13:39 (12:39 UTC)

预报

该预报发布于1小时和39分钟前的11:00 UTC
预报有效从26日的 12点(UTC)到 27日的 12点(UTC)
风速5节,风向
能见度10公里或以上
散云层高于4000英尺
轻雾
成为
从 26日的 16点(UTC)到 26日的 18点(UTC)
能見度: 4000
轻雾
短暂存在
从 26日的 20点(UTC)到 27日的 08点(UTC)
能見度: 0500
多云层高于200英尺
成为
从 27日的 08点(UTC)到 27日的 12点(UTC)
能見度: 1500
多云层高于1000英尺
雨, 轻雾

TAF: LIRP 261100Z 2612/2712 10005KT 9999 BR SCT040 BECMG 2616/2618 4000 BR TEMPO 2620/2708 0500 FG BKN002 BECMG 2708/2712 1500 RA BR BKN010

超过4000个机场的气象观测和天气预报(METAR&TAF报告)。

可查询的气象台以黄色和红色小点在地图上表示。

将鼠标移到小点上方,可查看气象台名称。

然后点击查看天气观测和预报。

如需切换地图:点击带黑十字的绿色按钮放大地图;点击带横线的绿色按钮缩小地图;或者点击绿色箭头查看邻近地区的地图。


METAR-TAF: